sensor_id;sensor_type;location;lat;lon;timestamp;P1;durP1;ratioP1;P2;durP2;ratioP2
48363;SDS011;34170;54.364;18.582;2022-11-18T00:01:18;7.63;;;1.80;;
48363;SDS011;34170;54.364;18.582;2022-11-18T00:03:48;17.98;;;2.10;;
48363;SDS011;34170;54.364;18.582;2022-11-18T00:06:21;8.13;;;1.27;;
48363;SDS011;34170;54.364;18.582;2022-11-18T00:08:50;15.82;;;1.35;;
48363;SDS011;34170;54.364;18.582;2022-11-18T00:11:20;17.45;;;2.78;;
48363;SDS011;34170;54.364;18.582;2022-11-18T00:14:15;10.95;;;1.30;;
48363;SDS011;34170;54.364;18.582;2022-11-18T00:16:52;10.52;;;1.48;;
48363;SDS011;34170;54.364;18.582;2022-11-18T00:19:28;9.05;;;1.30;;
48363;SDS011;34170;54.364;18.582;2022-11-18T00:21:58;7.07;;;1.33;;
48363;SDS011;34170;54.364;18.582;2022-11-18T00:24:26;7.68;;;1.27;;
48363;SDS011;34170;54.364;18.582;2022-11-18T00:26:54;6.57;;;1.00;;
48363;SDS011;34170;54.364;18.582;2022-11-18T00:29:22;10.85;;;1.35;;
48363;SDS011;34170;54.364;18.582;2022-11-18T00:34:22;10.68;;;1.02;;
48363;SDS011;34170;54.364;18.582;2022-11-18T00:36:50;6.05;;;1.00;;
48363;SDS011;34170;54.364;18.582;2022-11-18T00:39:17;1.60;;;0.43;;
48363;SDS011;34170;54.364;18.582;2022-11-18T00:41:46;2.83;;;0.60;;
48363;SDS011;34170;54.364;18.582;2022-11-18T00:44:32;3.55;;;0.50;;
48363;SDS011;34170;54.364;18.582;2022-11-18T00:47:00;7.18;;;0.65;;
48363;SDS011;34170;54.364;18.582;2022-11-18T00:49:28;1.15;;;0.32;;
48363;SDS011;34170;54.364;18.582;2022-11-18T00:51:55;1.80;;;0.40;;
48363;SDS011;34170;54.364;18.582;2022-11-18T00:54:23;0.98;;;0.52;;
48363;SDS011;34170;54.364;18.582;2022-11-18T00:56:50;1.63;;;0.30;;
48363;SDS011;34170;54.364;18.582;2022-11-18T00:59:17;2.95;;;0.40;;
48363;SDS011;34170;54.364;18.582;2022-11-18T01:01:45;1.08;;;0.22;;
48363;SDS011;34170;54.364;18.582;2022-11-18T01:04:14;2.25;;;0.50;;
48363;SDS011;34170;54.364;18.582;2022-11-18T01:06:42;3.47;;;0.75;;
48363;SDS011;34170;54.364;18.582;2022-11-18T01:09:09;2.20;;;0.73;;
48363;SDS011;34170;54.364;18.582;2022-11-18T01:11:37;2.03;;;0.35;;
48363;SDS011;34170;54.364;18.582;2022-11-18T01:14:23;3.33;;;0.85;;
48363;SDS011;34170;54.364;18.582;2022-11-18T01:16:54;1.65;;;0.52;;
48363;SDS011;34170;54.364;18.582;2022-11-18T01:19:22;1.08;;;0.50;;
48363;SDS011;34170;54.364;18.582;2022-11-18T01:21:51;2.63;;;0.60;;
48363;SDS011;34170;54.364;18.582;2022-11-18T01:24:18;1.48;;;0.50;;
48363;SDS011;34170;54.364;18.582;2022-11-18T01:26:46;3.15;;;0.65;;
48363;SDS011;34170;54.364;18.582;2022-11-18T01:29:14;3.80;;;0.52;;
48363;SDS011;34170;54.364;18.582;2022-11-18T01:31:42;5.70;;;0.70;;
48363;SDS011;34170;54.364;18.582;2022-11-18T01:34:29;3.80;;;0.70;;
48363;SDS011;34170;54.364;18.582;2022-11-18T01:36:56;4.40;;;0.95;;
48363;SDS011;34170;54.364;18.582;2022-11-18T01:39:24;6.15;;;0.65;;
48363;SDS011;34170;54.364;18.582;2022-11-18T01:41:51;2.00;;;0.60;;
48363;SDS011;34170;54.364;18.582;2022-11-18T01:47:44;6.05;;;0.68;;
48363;SDS011;34170;54.364;18.582;2022-11-18T01:50:16;4.93;;;1.00;;
48363;SDS011;34170;54.364;18.582;2022-11-18T01:52:46;4.50;;;0.70;;
48363;SDS011;34170;54.364;18.582;2022-11-18T01:55:22;2.05;;;0.82;;
48363;SDS011;34170;54.364;18.582;2022-11-18T01:57:53;3.78;;;1.33;;
48363;SDS011;34170;54.364;18.582;2022-11-18T02:00:27;3.35;;;1.67;;
48363;SDS011;34170;54.364;18.582;2022-11-18T02:02:54;4.68;;;1.40;;
48363;SDS011;34170;54.364;18.582;2022-11-18T02:05:22;4.05;;;1.85;;
48363;SDS011;34170;54.364;18.582;2022-11-18T02:07:52;4.32;;;1.70;;
48363;SDS011;34170;54.364;18.582;2022-11-18T02:10:21;5.68;;;1.88;;
48363;SDS011;34170;54.364;18.582;2022-11-18T02:12:51;4.95;;;1.85;;
48363;SDS011;34170;54.364;18.582;2022-11-18T02:15:22;4.55;;;1.70;;
48363;SDS011;34170;54.364;18.582;2022-11-18T02:18:02;4.28;;;2.13;;
48363;SDS011;34170;54.364;18.582;2022-11-18T02:20:42;3.92;;;1.58;;
48363;SDS011;34170;54.364;18.582;2022-11-18T02:29:23;4.53;;;1.67;;
48363;SDS011;34170;54.364;18.582;2022-11-18T02:31:59;5.18;;;2.22;;
48363;SDS011;34170;54.364;18.582;2022-11-18T02:37:21;4.47;;;1.65;;
48363;SDS011;34170;54.364;18.582;2022-11-18T02:40:00;4.50;;;2.20;;
48363;SDS011;34170;54.364;18.582;2022-11-18T02:42:34;6.13;;;2.60;;
48363;SDS011;34170;54.364;18.582;2022-11-18T02:45:11;6.20;;;2.30;;
48363;SDS011;34170;54.364;18.582;2022-11-18T02:47:43;5.90;;;2.38;;
48363;SDS011;34170;54.364;18.582;2022-11-18T02:50:14;7.85;;;2.67;;
48363;SDS011;34170;54.364;18.582;2022-11-18T02:55:15;6.72;;;2.80;;
48363;SDS011;34170;54.364;18.582;2022-11-18T02:57:44;6.10;;;2.63;;
48363;SDS011;34170;54.364;18.582;2022-11-18T03:00:14;8.75;;;3.92;;
48363;SDS011;34170;54.364;18.582;2022-11-18T03:02:42;7.13;;;2.83;;
48363;SDS011;34170;54.364;18.582;2022-11-18T03:05:15;8.77;;;4.13;;
48363;SDS011;34170;54.364;18.582;2022-11-18T03:07:53;9.88;;;3.22;;
48363;SDS011;34170;54.364;18.582;2022-11-18T03:10:26;7.28;;;2.90;;
48363;SDS011;34170;54.364;18.582;2022-11-18T03:13:04;9.20;;;3.08;;
48363;SDS011;34170;54.364;18.582;2022-11-18T03:15:45;7.95;;;3.10;;
48363;SDS011;34170;54.364;18.582;2022-11-18T03:18:37;8.13;;;3.40;;
48363;SDS011;34170;54.364;18.582;2022-11-18T03:21:21;12.43;;;3.53;;
48363;SDS011;34170;54.364;18.582;2022-11-18T03:23:58;9.38;;;3.47;;
48363;SDS011;34170;54.364;18.582;2022-11-18T03:26:37;8.77;;;3.70;;
48363;SDS011;34170;54.364;18.582;2022-11-18T03:29:12;8.82;;;3.33;;
48363;SDS011;34170;54.364;18.582;2022-11-18T03:31:48;8.38;;;3.00;;
48363;SDS011;34170;54.364;18.582;2022-11-18T03:34:20;6.30;;;2.90;;
48363;SDS011;34170;54.364;18.582;2022-11-18T03:36:55;5.70;;;2.63;;
48363;SDS011;34170;54.364;18.582;2022-11-18T03:39:30;7.13;;;3.05;;
48363;SDS011;34170;54.364;18.582;2022-11-18T03:42:08;5.88;;;3.13;;
48363;SDS011;34170;54.364;18.582;2022-11-18T03:44:57;8.68;;;3.30;;
48363;SDS011;34170;54.364;18.582;2022-11-18T03:47:34;6.57;;;2.95;;
48363;SDS011;34170;54.364;18.582;2022-11-18T03:50:05;8.75;;;3.92;;
48363;SDS011;34170;54.364;18.582;2022-11-18T03:52:38;7.25;;;3.47;;
48363;SDS011;34170;54.364;18.582;2022-11-18T03:55:11;8.65;;;3.90;;
48363;SDS011;34170;54.364;18.582;2022-11-18T03:57:45;8.55;;;4.35;;
48363;SDS011;34170;54.364;18.582;2022-11-18T04:00:14;8.40;;;4.05;;
48363;SDS011;34170;54.364;18.582;2022-11-18T04:02:43;7.53;;;3.83;;
48363;SDS011;34170;54.364;18.582;2022-11-18T04:05:13;7.97;;;3.78;;
48363;SDS011;34170;54.364;18.582;2022-11-18T04:08:00;8.57;;;3.88;;
48363;SDS011;34170;54.364;18.582;2022-11-18T04:10:34;8.10;;;3.15;;
48363;SDS011;34170;54.364;18.582;2022-11-18T04:13:29;7.80;;;3.67;;
48363;SDS011;34170;54.364;18.582;2022-11-18T04:15:58;9.00;;;3.40;;
48363;SDS011;34170;54.364;18.582;2022-11-18T04:18:27;8.13;;;3.45;;
48363;SDS011;34170;54.364;18.582;2022-11-18T04:20:54;7.80;;;3.40;;
48363;SDS011;34170;54.364;18.582;2022-11-18T04:23:21;6.90;;;2.72;;
48363;SDS011;34170;54.364;18.582;2022-11-18T04:25:48;5.07;;;2.67;;
48363;SDS011;34170;54.364;18.582;2022-11-18T04:28:16;7.28;;;3.33;;
48363;SDS011;34170;54.364;18.582;2022-11-18T04:30:43;6.82;;;3.28;;
48363;SDS011;34170;54.364;18.582;2022-11-18T04:33:10;5.05;;;2.25;;
48363;SDS011;34170;54.364;18.582;2022-11-18T04:35:38;5.68;;;1.88;;
48363;SDS011;34170;54.364;18.582;2022-11-18T04:38:05;6.15;;;2.15;;
48363;SDS011;34170;54.364;18.582;2022-11-18T04:40:32;5.10;;;2.85;;
48363;SDS011;34170;54.364;18.582;2022-11-18T04:43:00;5.93;;;2.10;;
48363;SDS011;34170;54.364;18.582;2022-11-18T04:45:27;4.28;;;1.73;;
48363;SDS011;34170;54.364;18.582;2022-11-18T04:47:54;9.18;;;3.88;;
48363;SDS011;34170;54.364;18.582;2022-11-18T04:50:29;7.78;;;3.70;;
48363;SDS011;34170;54.364;18.582;2022-11-18T04:52:56;7.70;;;3.80;;
48363;SDS011;34170;54.364;18.582;2022-11-18T04:55:23;7.03;;;3.40;;
48363;SDS011;34170;54.364;18.582;2022-11-18T04:57:53;6.55;;;3.17;;
48363;SDS011;34170;54.364;18.582;2022-11-18T05:00:20;7.07;;;3.30;;
48363;SDS011;34170;54.364;18.582;2022-11-18T05:02:48;5.15;;;2.70;;
48363;SDS011;34170;54.364;18.582;2022-11-18T05:05:15;8.63;;;3.50;;
48363;SDS011;34170;54.364;18.582;2022-11-18T05:07:43;10.93;;;4.43;;
48363;SDS011;34170;54.364;18.582;2022-11-18T05:10:10;8.43;;;4.00;;
48363;SDS011;34170;54.364;18.582;2022-11-18T05:12:37;7.60;;;3.25;;
48363;SDS011;34170;54.364;18.582;2022-11-18T05:15:19;7.47;;;3.80;;
48363;SDS011;34170;54.364;18.582;2022-11-18T05:17:48;8.82;;;3.95;;
48363;SDS011;34170;54.364;18.582;2022-11-18T05:20:16;10.23;;;3.67;;
48363;SDS011;34170;54.364;18.582;2022-11-18T05:22:43;8.93;;;4.28;;
48363;SDS011;34170;54.364;18.582;2022-11-18T05:25:10;8.77;;;4.07;;
48363;SDS011;34170;54.364;18.582;2022-11-18T05:27:38;5.25;;;2.42;;
48363;SDS011;34170;54.364;18.582;2022-11-18T05:30:05;5.60;;;2.78;;
48363;SDS011;34170;54.364;18.582;2022-11-18T05:32:33;6.85;;;3.22;;
48363;SDS011;34170;54.364;18.582;2022-11-18T05:35:00;9.30;;;3.88;;
48363;SDS011;34170;54.364;18.582;2022-11-18T05:37:30;7.05;;;2.92;;
48363;SDS011;34170;54.364;18.582;2022-11-18T05:39:58;7.20;;;2.92;;
48363;SDS011;34170;54.364;18.582;2022-11-18T05:42:25;7.85;;;3.22;;
48363;SDS011;34170;54.364;18.582;2022-11-18T05:45:11;5.57;;;2.58;;
48363;SDS011;34170;54.364;18.582;2022-11-18T05:47:38;7.95;;;2.53;;
48363;SDS011;34170;54.364;18.582;2022-11-18T05:50:25;6.43;;;2.97;;
48363;SDS011;34170;54.364;18.582;2022-11-18T05:52:52;8.55;;;3.08;;
48363;SDS011;34170;54.364;18.582;2022-11-18T05:55:20;7.88;;;3.17;;
48363;SDS011;34170;54.364;18.582;2022-11-18T05:57:52;6.43;;;3.30;;
48363;SDS011;34170;54.364;18.582;2022-11-18T06:00:19;7.68;;;3.08;;
48363;SDS011;34170;54.364;18.582;2022-11-18T06:02:47;6.13;;;2.90;;
48363;SDS011;34170;54.364;18.582;2022-11-18T06:05:16;6.68;;;2.95;;
48363;SDS011;34170;54.364;18.582;2022-11-18T06:07:46;6.45;;;2.60;;
48363;SDS011;34170;54.364;18.582;2022-11-18T06:10:21;8.23;;;2.70;;
48363;SDS011;34170;54.364;18.582;2022-11-18T06:12:51;7.13;;;2.67;;
48363;SDS011;34170;54.364;18.582;2022-11-18T06:15:24;5.60;;;2.53;;
48363;SDS011;34170;54.364;18.582;2022-11-18T06:20:28;3.95;;;1.83;;
48363;SDS011;34170;54.364;18.582;2022-11-18T06:22:55;2.40;;;0.70;;
48363;SDS011;34170;54.364;18.582;2022-11-18T06:25:24;5.38;;;1.20;;
48363;SDS011;34170;54.364;18.582;2022-11-18T06:27:53;2.65;;;0.88;;
48363;SDS011;34170;54.364;18.582;2022-11-18T06:30:24;4.15;;;0.80;;
48363;SDS011;34170;54.364;18.582;2022-11-18T06:32:51;11.18;;;1.25;;
48363;SDS011;34170;54.364;18.582;2022-11-18T06:35:18;6.70;;;1.30;;
48363;SDS011;34170;54.364;18.582;2022-11-18T06:37:46;11.20;;;2.60;;
48363;SDS011;34170;54.364;18.582;2022-11-18T06:40:13;10.35;;;1.67;;
48363;SDS011;34170;54.364;18.582;2022-11-18T06:42:41;8.25;;;1.20;;
48363;SDS011;34170;54.364;18.582;2022-11-18T06:45:27;3.63;;;0.43;;
48363;SDS011;34170;54.364;18.582;2022-11-18T06:47:58;4.10;;;0.50;;
48363;SDS011;34170;54.364;18.582;2022-11-18T06:50:27;2.80;;;0.60;;
48363;SDS011;34170;54.364;18.582;2022-11-18T06:52:55;2.58;;;0.80;;
48363;SDS011;34170;54.364;18.582;2022-11-18T06:55:25;3.60;;;0.52;;
48363;SDS011;34170;54.364;18.582;2022-11-18T06:57:54;1.42;;;0.30;;
48363;SDS011;34170;54.364;18.582;2022-11-18T07:00:22;0.98;;;0.30;;
48363;SDS011;34170;54.364;18.582;2022-11-18T07:02:49;10.60;;;0.75;;
48363;SDS011;34170;54.364;18.582;2022-11-18T07:05:17;14.18;;;1.52;;
48363;SDS011;34170;54.364;18.582;2022-11-18T07:07:44;4.80;;;1.13;;
48363;SDS011;34170;54.364;18.582;2022-11-18T07:10:12;7.80;;;0.90;;
48363;SDS011;34170;54.364;18.582;2022-11-18T07:12:39;9.30;;;2.25;;
48363;SDS011;34170;54.364;18.582;2022-11-18T07:15:06;6.90;;;1.98;;
48363;SDS011;34170;54.364;18.582;2022-11-18T07:17:34;12.63;;;2.17;;
48363;SDS011;34170;54.364;18.582;2022-11-18T07:20:01;12.00;;;1.52;;
48363;SDS011;34170;54.364;18.582;2022-11-18T07:22:29;5.97;;;1.17;;
48363;SDS011;34170;54.364;18.582;2022-11-18T07:24:56;10.27;;;1.20;;
48363;SDS011;34170;54.364;18.582;2022-11-18T07:27:24;8.38;;;1.05;;
48363;SDS011;34170;54.364;18.582;2022-11-18T07:29:51;8.10;;;1.00;;
48363;SDS011;34170;54.364;18.582;2022-11-18T07:32:19;7.32;;;0.82;;
48363;SDS011;34170;54.364;18.582;2022-11-18T07:34:46;7.90;;;1.08;;
48363;SDS011;34170;54.364;18.582;2022-11-18T07:37:13;5.15;;;0.77;;
48363;SDS011;34170;54.364;18.582;2022-11-18T07:39:41;8.13;;;1.20;;
48363;SDS011;34170;54.364;18.582;2022-11-18T07:42:08;4.47;;;1.48;;
48363;SDS011;34170;54.364;18.582;2022-11-18T07:44:35;9.00;;;1.30;;
48363;SDS011;34170;54.364;18.582;2022-11-18T07:47:03;1.10;;;0.40;;
48363;SDS011;34170;54.364;18.582;2022-11-18T07:49:30;0.77;;;0.40;;
48363;SDS011;34170;54.364;18.582;2022-11-18T07:51:57;0.60;;;0.20;;
48363;SDS011;34170;54.364;18.582;2022-11-18T07:54:25;3.10;;;0.40;;
48363;SDS011;34170;54.364;18.582;2022-11-18T07:56:52;8.63;;;1.90;;
48363;SDS011;34170;54.364;18.582;2022-11-18T07:59:19;9.75;;;2.03;;
48363;SDS011;34170;54.364;18.582;2022-11-18T08:01:47;14.77;;;3.00;;
48363;SDS011;34170;54.364;18.582;2022-11-18T08:04:14;17.48;;;2.17;;
48363;SDS011;34170;54.364;18.582;2022-11-18T08:06:44;7.43;;;1.10;;
48363;SDS011;34170;54.364;18.582;2022-11-18T08:09:11;5.00;;;1.10;;
48363;SDS011;34170;54.364;18.582;2022-11-18T08:11:39;6.22;;;0.43;;
48363;SDS011;34170;54.364;18.582;2022-11-18T08:14:06;5.25;;;1.23;;
48363;SDS011;34170;54.364;18.582;2022-11-18T08:16:34;9.35;;;1.10;;
48363;SDS011;34170;54.364;18.582;2022-11-18T08:19:01;9.48;;;0.80;;
48363;SDS011;34170;54.364;18.582;2022-11-18T08:21:29;4.90;;;0.55;;
48363;SDS011;34170;54.364;18.582;2022-11-18T08:23:57;2.17;;;0.50;;
48363;SDS011;34170;54.364;18.582;2022-11-18T08:26:24;2.22;;;0.30;;
48363;SDS011;34170;54.364;18.582;2022-11-18T08:28:53;1.65;;;0.50;;
48363;SDS011;34170;54.364;18.582;2022-11-18T08:31:24;2.65;;;0.47;;
48363;SDS011;34170;54.364;18.582;2022-11-18T08:33:53;1.98;;;0.47;;
48363;SDS011;34170;54.364;18.582;2022-11-18T08:36:22;1.75;;;0.50;;
48363;SDS011;34170;54.364;18.582;2022-11-18T08:38:53;2.08;;;0.80;;
48363;SDS011;34170;54.364;18.582;2022-11-18T08:44:06;1.70;;;0.52;;
48363;SDS011;34170;54.364;18.582;2022-11-18T08:46:37;2.45;;;0.77;;
48363;SDS011;34170;54.364;18.582;2022-11-18T08:49:04;1.92;;;0.82;;
48363;SDS011;34170;54.364;18.582;2022-11-18T08:51:32;2.08;;;0.93;;
48363;SDS011;34170;54.364;18.582;2022-11-18T08:53:59;1.77;;;0.73;;
48363;SDS011;34170;54.364;18.582;2022-11-18T08:56:26;2.05;;;0.70;;
48363;SDS011;34170;54.364;18.582;2022-11-18T08:58:54;2.47;;;1.00;;
48363;SDS011;34170;54.364;18.582;2022-11-18T09:01:22;1.98;;;0.80;;
48363;SDS011;34170;54.364;18.582;2022-11-18T09:03:49;1.80;;;0.70;;
48363;SDS011;34170;54.364;18.582;2022-11-18T09:06:19;1.27;;;0.50;;
48363;SDS011;34170;54.364;18.582;2022-11-18T09:08:48;1.75;;;0.60;;
48363;SDS011;34170;54.364;18.582;2022-11-18T09:11:16;2.53;;;0.57;;
48363;SDS011;34170;54.364;18.582;2022-11-18T09:13:45;1.33;;;0.60;;
48363;SDS011;34170;54.364;18.582;2022-11-18T09:16:33;2.10;;;0.50;;
48363;SDS011;34170;54.364;18.582;2022-11-18T09:19:01;1.85;;;0.52;;
48363;SDS011;34170;54.364;18.582;2022-11-18T09:21:49;2.65;;;0.50;;
48363;SDS011;34170;54.364;18.582;2022-11-18T09:24:16;1.73;;;0.52;;
48363;SDS011;34170;54.364;18.582;2022-11-18T09:26:44;1.95;;;0.50;;
48363;SDS011;34170;54.364;18.582;2022-11-18T09:29:11;2.05;;;0.50;;
48363;SDS011;34170;54.364;18.582;2022-11-18T09:31:40;1.92;;;0.65;;
48363;SDS011;34170;54.364;18.582;2022-11-18T09:34:07;2.20;;;0.40;;
48363;SDS011;34170;54.364;18.582;2022-11-18T09:36:36;1.52;;;0.50;;
48363;SDS011;34170;54.364;18.582;2022-11-18T09:39:03;2.83;;;0.70;;
48363;SDS011;34170;54.364;18.582;2022-11-18T09:49:14;1.52;;;0.60;;
48363;SDS011;34170;54.364;18.582;2022-11-18T09:51:50;1.42;;;0.47;;
48363;SDS011;34170;54.364;18.582;2022-11-18T09:54:19;2.53;;;0.90;;
48363;SDS011;34170;54.364;18.582;2022-11-18T09:56:52;3.00;;;0.50;;
48363;SDS011;34170;54.364;18.582;2022-11-18T09:59:25;1.30;;;0.43;;
48363;SDS011;34170;54.364;18.582;2022-11-18T10:01:58;1.73;;;0.38;;
48363;SDS011;34170;54.364;18.582;2022-11-18T10:04:51;2.88;;;0.50;;
48363;SDS011;34170;54.364;18.582;2022-11-18T10:07:23;2.15;;;0.50;;
48363;SDS011;34170;54.364;18.582;2022-11-18T10:09:58;1.33;;;0.43;;
48363;SDS011;34170;54.364;18.582;2022-11-18T10:12:40;1.75;;;0.70;;
48363;SDS011;34170;54.364;18.582;2022-11-18T10:21:34;2.65;;;1.05;;
48363;SDS011;34170;54.364;18.582;2022-11-18T10:24:23;1.60;;;0.55;;
48363;SDS011;34170;54.364;18.582;2022-11-18T10:26:56;0.63;;;0.22;;
48363;SDS011;34170;54.364;18.582;2022-11-18T10:29:25;2.17;;;0.30;;
48363;SDS011;34170;54.364;18.582;2022-11-18T10:32:00;1.70;;;0.40;;
48363;SDS011;34170;54.364;18.582;2022-11-18T10:34:31;2.35;;;0.70;;
48363;SDS011;34170;54.364;18.582;2022-11-18T10:37:02;1.55;;;0.73;;
48363;SDS011;34170;54.364;18.582;2022-11-18T10:39:48;3.08;;;0.75;;
48363;SDS011;34170;54.364;18.582;2022-11-18T10:45:23;3.33;;;0.75;;
48363;SDS011;34170;54.364;18.582;2022-11-18T10:48:27;2.65;;;0.40;;
48363;SDS011;34170;54.364;18.582;2022-11-18T10:50:48;1.17;;;0.35;;
48363;SDS011;34170;54.364;18.582;2022-11-18T10:53:34;1.02;;;0.40;;
48363;SDS011;34170;54.364;18.582;2022-11-18T10:56:04;1.00;;;0.40;;
48363;SDS011;34170;54.364;18.582;2022-11-18T10:58:34;2.97;;;0.70;;
48363;SDS011;34170;54.364;18.582;2022-11-18T11:01:05;2.45;;;0.60;;
48363;SDS011;34170;54.364;18.582;2022-11-18T11:03:35;2.05;;;0.40;;
48363;SDS011;34170;54.364;18.582;2022-11-18T11:08:54;7.70;;;1.10;;
48363;SDS011;34170;54.364;18.582;2022-11-18T11:11:26;1.60;;;0.43;;
48363;SDS011;34170;54.364;18.582;2022-11-18T11:14:04;1.52;;;0.68;;
48363;SDS011;34170;54.364;18.582;2022-11-18T11:16:40;3.03;;;0.95;;
48363;SDS011;34170;54.364;18.582;2022-11-18T11:19:13;2.22;;;0.88;;
48363;SDS011;34170;54.364;18.582;2022-11-18T11:21:43;1.20;;;0.68;;
48363;SDS011;34170;54.364;18.582;2022-11-18T11:24:11;1.52;;;0.68;;
48363;SDS011;34170;54.364;18.582;2022-11-18T11:26:42;2.15;;;1.23;;
48363;SDS011;34170;54.364;18.582;2022-11-18T11:35:26;2.85;;;1.25;;
48363;SDS011;34170;54.364;18.582;2022-11-18T11:38:10;4.03;;;0.88;;
48363;SDS011;34170;54.364;18.582;2022-11-18T11:40:50;2.85;;;1.40;;
48363;SDS011;34170;54.364;18.582;2022-11-18T11:57:45;3.85;;;0.80;;
48363;SDS011;34170;54.364;18.582;2022-11-18T12:00:19;1.52;;;0.75;;
48363;SDS011;34170;54.364;18.582;2022-11-18T12:05:45;2.88;;;1.00;;
48363;SDS011;34170;54.364;18.582;2022-11-18T12:08:13;5.63;;;1.17;;
48363;SDS011;34170;54.364;18.582;2022-11-18T12:26:44;2.30;;;1.05;;
48363;SDS011;34170;54.364;18.582;2022-11-18T12:31:48;3.22;;;1.20;;
48363;SDS011;34170;54.364;18.582;2022-11-18T12:34:40;2.47;;;1.20;;
48363;SDS011;34170;54.364;18.582;2022-11-18T12:42:36;1.60;;;0.82;;
48363;SDS011;34170;54.364;18.582;2022-11-18T12:45:48;4.75;;;1.38;;
48363;SDS011;34170;54.364;18.582;2022-11-18T12:50:58;3.55;;;1.50;;
48363;SDS011;34170;54.364;18.582;2022-11-18T12:56:08;3.63;;;1.58;;
48363;SDS011;34170;54.364;18.582;2022-11-18T13:01:24;3.78;;;1.38;;
48363;SDS011;34170;54.364;18.582;2022-11-18T13:06:40;3.28;;;1.30;;
48363;SDS011;34170;54.364;18.582;2022-11-18T13:09:13;1.67;;;0.70;;
48363;SDS011;34170;54.364;18.582;2022-11-18T13:11:54;3.65;;;0.70;;
48363;SDS011;34170;54.364;18.582;2022-11-18T13:14:40;4.25;;;1.05;;
48363;SDS011;34170;54.364;18.582;2022-11-18T13:17:31;5.15;;;1.30;;
48363;SDS011;34170;54.364;18.582;2022-11-18T13:20:28;4.90;;;1.17;;
48363;SDS011;34170;54.364;18.582;2022-11-18T13:23:00;5.38;;;1.70;;
48363;SDS011;34170;54.364;18.582;2022-11-18T13:25:47;2.97;;;1.05;;
48363;SDS011;34170;54.364;18.582;2022-11-18T13:33:50;4.63;;;1.10;;
48363;SDS011;34170;54.364;18.582;2022-11-18T13:36:20;3.22;;;1.10;;
48363;SDS011;34170;54.364;18.582;2022-11-18T13:38:55;3.70;;;1.30;;
48363;SDS011;34170;54.364;18.582;2022-11-18T13:41:26;3.08;;;1.25;;
48363;SDS011;34170;54.364;18.582;2022-11-18T13:46:45;2.72;;;1.08;;
48363;SDS011;34170;54.364;18.582;2022-11-18T13:49:21;3.47;;;1.60;;
48363;SDS011;34170;54.364;18.582;2022-11-18T13:51:58;4.00;;;2.00;;
48363;SDS011;34170;54.364;18.582;2022-11-18T13:54:26;4.07;;;1.35;;
48363;SDS011;34170;54.364;18.582;2022-11-18T13:56:55;4.03;;;1.30;;
48363;SDS011;34170;54.364;18.582;2022-11-18T13:59:22;3.30;;;1.50;;
48363;SDS011;34170;54.364;18.582;2022-11-18T14:01:54;3.30;;;1.40;;
48363;SDS011;34170;54.364;18.582;2022-11-18T14:04:22;4.72;;;1.30;;
48363;SDS011;34170;54.364;18.582;2022-11-18T14:06:53;5.20;;;1.90;;
48363;SDS011;34170;54.364;18.582;2022-11-18T14:09:56;4.95;;;1.98;;
48363;SDS011;34170;54.364;18.582;2022-11-18T14:12:29;4.65;;;2.15;;
48363;SDS011;34170;54.364;18.582;2022-11-18T14:21:03;5.90;;;1.95;;
48363;SDS011;34170;54.364;18.582;2022-11-18T14:23:32;5.05;;;2.08;;
48363;SDS011;34170;54.364;18.582;2022-11-18T14:26:03;6.45;;;2.25;;
48363;SDS011;34170;54.364;18.582;2022-11-18T14:28:32;2.95;;;1.40;;
48363;SDS011;34170;54.364;18.582;2022-11-18T14:33:39;7.45;;;2.38;;
48363;SDS011;34170;54.364;18.582;2022-11-18T14:36:13;3.78;;;1.75;;
48363;SDS011;34170;54.364;18.582;2022-11-18T14:38:43;10.10;;;2.15;;
48363;SDS011;34170;54.364;18.582;2022-11-18T14:41:32;2.50;;;1.08;;
48363;SDS011;34170;54.364;18.582;2022-11-18T14:44:15;3.65;;;1.40;;
48363;SDS011;34170;54.364;18.582;2022-11-18T14:46:46;4.68;;;1.23;;
48363;SDS011;34170;54.364;18.582;2022-11-18T14:49:34;3.13;;;0.60;;
48363;SDS011;34170;54.364;18.582;2022-11-18T14:52:02;2.80;;;0.73;;
48363;SDS011;34170;54.364;18.582;2022-11-18T14:54:30;1.65;;;0.55;;
48363;SDS011;34170;54.364;18.582;2022-11-18T14:57:01;1.35;;;0.43;;
48363;SDS011;34170;54.364;18.582;2022-11-18T14:59:31;3.00;;;0.50;;
48363;SDS011;34170;54.364;18.582;2022-11-18T15:01:58;3.13;;;0.60;;
48363;SDS011;34170;54.364;18.582;2022-11-18T15:04:26;5.07;;;2.63;;
48363;SDS011;34170;54.364;18.582;2022-11-18T15:06:53;3.72;;;1.33;;
48363;SDS011;34170;54.364;18.582;2022-11-18T15:09:21;9.85;;;2.38;;
48363;SDS011;34170;54.364;18.582;2022-11-18T15:11:48;5.32;;;2.15;;
48363;SDS011;34170;54.364;18.582;2022-11-18T15:14:16;3.15;;;1.55;;
48363;SDS011;34170;54.364;18.582;2022-11-18T15:16:44;6.90;;;1.75;;
48363;SDS011;34170;54.364;18.582;2022-11-18T15:19:15;3.33;;;1.33;;
48363;SDS011;34170;54.364;18.582;2022-11-18T15:21:42;4.22;;;1.60;;
48363;SDS011;34170;54.364;18.582;2022-11-18T15:24:11;3.25;;;1.35;;
48363;SDS011;34170;54.364;18.582;2022-11-18T15:26:40;4.88;;;2.00;;
48363;SDS011;34170;54.364;18.582;2022-11-18T15:29:19;3.90;;;2.05;;
48363;SDS011;34170;54.364;18.582;2022-11-18T15:31:48;4.88;;;2.85;;
48363;SDS011;34170;54.364;18.582;2022-11-18T15:34:17;5.65;;;2.47;;
48363;SDS011;34170;54.364;18.582;2022-11-18T15:36:46;4.47;;;2.00;;
48363;SDS011;34170;54.364;18.582;2022-11-18T15:39:14;9.23;;;2.30;;
48363;SDS011;34170;54.364;18.582;2022-11-18T15:41:41;3.97;;;2.38;;
48363;SDS011;34170;54.364;18.582;2022-11-18T15:44:09;9.73;;;2.40;;
48363;SDS011;34170;54.364;18.582;2022-11-18T15:46:37;4.65;;;1.88;;
48363;SDS011;34170;54.364;18.582;2022-11-18T15:49:05;5.22;;;2.13;;
48363;SDS011;34170;54.364;18.582;2022-11-18T15:51:35;5.75;;;1.90;;
48363;SDS011;34170;54.364;18.582;2022-11-18T15:54:03;8.95;;;2.72;;
48363;SDS011;34170;54.364;18.582;2022-11-18T15:56:30;7.88;;;3.13;;
48363;SDS011;34170;54.364;18.582;2022-11-18T15:59:00;6.03;;;2.45;;
48363;SDS011;34170;54.364;18.582;2022-11-18T16:01:28;6.82;;;2.35;;
48363;SDS011;34170;54.364;18.582;2022-11-18T16:03:58;6.82;;;2.97;;
48363;SDS011;34170;54.364;18.582;2022-11-18T16:06:26;6.38;;;2.80;;
48363;SDS011;34170;54.364;18.582;2022-11-18T16:08:55;5.13;;;3.10;;
48363;SDS011;34170;54.364;18.582;2022-11-18T16:14:13;7.07;;;2.78;;
48363;SDS011;34170;54.364;18.582;2022-11-18T16:16:44;5.53;;;2.50;;
48363;SDS011;34170;54.364;18.582;2022-11-18T16:19:13;6.22;;;2.50;;
48363;SDS011;34170;54.364;18.582;2022-11-18T16:21:43;5.88;;;2.47;;
48363;SDS011;34170;54.364;18.582;2022-11-18T16:24:14;10.70;;;3.78;;
48363;SDS011;34170;54.364;18.582;2022-11-18T16:26:44;9.73;;;3.78;;
48363;SDS011;34170;54.364;18.582;2022-11-18T16:29:11;6.60;;;2.97;;
48363;SDS011;34170;54.364;18.582;2022-11-18T16:31:44;4.43;;;1.90;;
48363;SDS011;34170;54.364;18.582;2022-11-18T16:34:23;7.15;;;2.55;;
48363;SDS011;34170;54.364;18.582;2022-11-18T16:36:53;7.05;;;2.53;;
48363;SDS011;34170;54.364;18.582;2022-11-18T16:39:23;7.68;;;2.20;;
48363;SDS011;34170;54.364;18.582;2022-11-18T16:41:56;4.65;;;2.40;;
48363;SDS011;34170;54.364;18.582;2022-11-18T16:44:34;5.75;;;2.50;;
48363;SDS011;34170;54.364;18.582;2022-11-18T16:47:03;5.72;;;2.38;;
48363;SDS011;34170;54.364;18.582;2022-11-18T16:49:40;6.75;;;2.13;;
48363;SDS011;34170;54.364;18.582;2022-11-18T16:52:08;8.02;;;2.50;;
48363;SDS011;34170;54.364;18.582;2022-11-18T16:54:36;5.38;;;2.55;;
48363;SDS011;34170;54.364;18.582;2022-11-18T16:57:10;4.32;;;2.10;;
48363;SDS011;34170;54.364;18.582;2022-11-18T16:59:38;6.47;;;2.15;;